Time;durP1;ratioP1;P1;durP2;ratioP2;P2;SDS_P1;SDS_P2;PMS_P1;PMS_P2;Temp;Humidity;BMP_temperature;BMP_pressure;BME280_temperature;BME280_humidity;BME280_pressure;Samples;Min_cycle;Max_cycle;Signal;HPM_P1;HPM_P2
2021/12/20 00:00:23;;;;;;;13.70;10.85;;;;;;;9.34;53.77;100356.84;1626462;84;21079;-52
2021/12/20 00:02:54;;;;;;;13.08;10.95;;;;;;;9.32;53.84;100363.81;1672933;84;21129;-53
2021/12/20 00:05:21;;;;;;;12.23;10.23;;;;;;;9.30;53.86;100360.41;1672543;84;21070;-52
2021/12/20 00:07:48;;;;;;;11.78;10.28;;;;;;;9.29;53.84;100366.50;1675240;84;21019;-52
2021/12/20 00:10:17;;;;;;;11.20;9.70;;;;;;;9.30;53.83;100364.30;1671437;84;21573;-53
2021/12/20 00:12:43;;;;;;;11.35;9.98;;;;;;;9.31;53.83;100367.76;1678152;84;21137;-52
2021/12/20 00:15:10;;;;;;;10.35;9.20;;;;;;;9.32;53.73;100369.02;1697443;81;21493;-52
2021/12/20 00:17:37;;;;;;;11.53;9.38;;;;;;;9.33;53.61;100368.58;1767177;80;21029;-52
2021/12/20 00:20:06;;;;;;;10.90;9.35;;;;;;;9.32;53.48;100344.34;1770349;80;21070;-53
2021/12/20 00:22:34;;;;;;;9.55;8.55;;;;;;;9.32;53.48;100352.13;1773770;80;21045;-52
2021/12/20 00:25:00;;;;;;;10.82;8.38;;;;;;;9.34;53.36;100349.06;1772672;80;21002;-52
2021/12/20 00:27:27;;;;;;;11.85;8.93;;;;;;;9.33;53.27;100348.66;1770393;80;21478;-52
2021/12/20 00:29:53;;;;;;;8.98;7.95;;;;;;;9.34;53.16;100344.30;1766977;80;21555;-52
2021/12/20 00:32:19;;;;;;;7.75;6.83;;;;;;;9.31;53.01;100345.25;1762198;80;21548;-52
2021/12/20 00:34:46;;;;;;;7.50;6.35;;;;;;;9.30;52.85;100338.34;1761308;80;21467;-52
2021/12/20 00:42:45;;;;;;;11.45;6.65;;;;;;;9.25;52.54;100350.59;1746896;80;21538;-52
2021/12/20 00:45:12;;;;;;;7.87;6.05;;;;;;;9.26;52.45;100349.68;1765975;80;21596;-52
2021/12/20 00:47:40;;;;;;;6.85;6.15;;;;;;;9.28;52.37;100333.62;1748769;80;21550;-51
2021/12/20 00:50:08;;;;;;;7.10;6.17;;;;;;;9.30;52.23;100335.73;1758234;80;21018;-52
2021/12/20 00:52:36;;;;;;;6.37;5.75;;;;;;;9.32;52.07;100335.70;1751519;80;21005;-51
2021/12/20 00:55:03;;;;;;;8.78;6.53;;;;;;;9.32;51.92;100339.16;1764527;80;21007;-52
2021/12/20 00:57:30;;;;;;;7.70;6.35;;;;;;;9.31;51.89;100338.77;1760064;80;21455;-51
2021/12/20 00:59:57;;;;;;;7.03;5.60;;;;;;;9.30;51.97;100339.63;1760511;80;21070;-52
2021/12/20 01:02:24;;;;;;;5.97;5.03;;;;;;;9.30;51.93;100339.63;1753568;80;21025;-51
2021/12/20 01:04:50;;;;;;;6.60;5.90;;;;;;;9.30;51.92;100340.93;1764282;80;21066;-52
2021/12/20 01:07:17;;;;;;;7.20;6.10;;;;;;;9.32;51.82;100339.16;1758789;80;21053;-51
2021/12/20 01:09:43;;;;;;;6.03;5.33;;;;;;;9.35;51.72;100335.64;1750272;80;21081;-52
2021/12/20 01:12:16;;;;;;;5.33;4.83;;;;;;;9.35;51.66;100336.50;1784384;80;20966;-53
2021/12/20 01:14:38;;;;;;;6.50;5.65;;;;;;;9.35;51.61;100336.94;1757715;80;21470;-52
2021/12/20 01:17:05;;;;;;;5.75;4.90;;;;;;;9.34;51.56;100326.98;1757318;80;21031;-52
2021/12/20 01:19:33;;;;;;;6.03;5.35;;;;;;;9.33;51.56;100331.79;1761477;80;21498;-52
2021/12/20 01:22:00;;;;;;;6.22;5.03;;;;;;;9.32;51.62;100324.87;1748666;81;21444;-51
2021/12/20 01:24:27;;;;;;;6.12;4.97;;;;;;;9.31;51.64;100324.48;1761407;80;21017;-52
2021/12/20 01:26:53;;;;;;;5.92;4.80;;;;;;;9.30;51.66;100324.05;1744718;80;20984;-52
2021/12/20 01:29:20;;;;;;;5.45;4.83;;;;;;;9.31;51.56;100326.22;1755616;80;21044;-51
2021/12/20 01:31:46;;;;;;;4.97;4.47;;;;;;;9.31;51.49;100327.08;1764078;80;20997;-51
2021/12/20 01:34:12;;;;;;;7.25;5.35;;;;;;;9.33;51.42;100324.00;1772009;80;20983;-51
2021/12/20 01:36:39;;;;;;;5.25;4.53;;;;;;;9.33;51.34;100327.89;1771631;80;21038;-51
2021/12/20 01:39:07;;;;;;;5.35;3.95;;;;;;;9.34;51.23;100326.98;1755210;80;21042;-52
2021/12/20 01:41:40;;;;;;;5.80;4.70;;;;;;;9.33;51.17;100324.44;1754907;80;20994;-52
2021/12/20 01:44:07;;;;;;;6.08;4.60;;;;;;;9.31;51.18;100319.29;1753341;80;21057;-51
2021/12/20 01:46:34;;;;;;;4.30;3.87;;;;;;;9.32;51.23;100318.38;1753745;80;21545;-53
2021/12/20 01:49:03;;;;;;;4.85;3.62;;;;;;;9.32;51.22;100320.98;1758522;80;20963;-51
2021/12/20 01:51:47;;;;;;;4.47;3.90;;;;;;;9.33;51.12;100319.24;1757769;80;21045;-52
2021/12/20 01:54:00;;;;;;;;;;;;;;;9.35;51.08;100319.63;1776214;80;21522;-52
2021/12/20 01:56:28;;;;;;;5.03;4.17;;;;;;;9.35;51.05;100315.73;1736981;82;20167;-51
2021/12/20 01:59:05;;;;;;;5.53;4.28;;;;;;;9.34;51.02;100324.39;1770264;80;21484;-52
2021/12/20 02:01:34;;;;;;;3.92;3.27;;;;;;;9.34;51.02;100321.80;1758325;80;21073;-54
2021/12/20 02:04:04;;;;;;;4.30;3.40;;;;;;;9.33;50.96;100321.84;1763157;80;21482;-51
2021/12/20 02:06:37;;;;;;;4.05;3.17;;;;;;;9.32;50.83;100317.09;1758509;80;21082;-51
2021/12/20 02:09:17;;;;;;;6.97;4.33;;;;;;;9.32;50.64;100317.09;1767577;80;21046;-52
2021/12/20 02:11:47;;;;;;;3.37;3.00;;;;;;;9.33;50.47;100312.75;1696220;83;21093;-51
2021/12/20 02:14:14;;;;;;;3.55;2.75;;;;;;;9.35;50.28;100315.73;1662390;85;21030;-51
2021/12/20 02:16:41;;;;;;;3.27;2.70;;;;;;;9.39;50.01;100312.17;1644417;86;21108;-52
2021/12/20 02:19:12;;;;;;;4.15;2.77;;;;;;;9.42;49.82;100309.92;1636851;86;21023;-51
2021/12/20 02:21:39;;;;;;;2.67;2.47;;;;;;;9.45;49.61;100313.31;1605137;88;21200;-51
2021/12/20 02:24:06;;;;;;;2.98;2.67;;;;;;;9.47;49.46;100307.64;1607376;88;21213;-51
2021/12/20 02:26:32;;;;;;;3.00;2.65;;;;;;;9.46;49.30;100303.32;1605644;89;21566;-51
2021/12/20 02:29:05;;;;;;;4.87;2.87;;;;;;;9.45;49.11;100300.33;1607329;89;21115;-51
2021/12/20 02:37:19;;;;;;;3.27;2.75;;;;;;;9.41;49.33;100287.02;1604046;88;21556;-51
2021/12/20 02:39:42;;;;;;;3.77;3.10;;;;;;;9.42;49.33;100288.70;1640039;86;21074;-52
2021/12/20 02:42:12;;;;;;;3.05;2.75;;;;;;;9.44;49.25;100291.26;1643660;86;21152;-51
2021/12/20 02:44:37;;;;;;;3.27;2.67;;;;;;;9.45;49.19;100296.88;1650106;86;21105;-52
2021/12/20 02:47:08;;;;;;;3.35;2.65;;;;;;;9.45;49.23;100301.63;1651430;86;21086;-51
2021/12/20 02:49:33;;;;;;;3.47;2.95;;;;;;;9.43;49.28;100306.01;1646534;85;21530;-52
2021/12/20 02:52:05;;;;;;;3.02;2.72;;;;;;;9.41;49.22;100309.09;1645091;86;21038;-52
2021/12/20 02:54:33;;;;;;;3.12;2.80;;;;;;;9.39;49.13;100304.38;1644605;86;21030;-51
2021/12/20 02:57:00;;;;;;;3.33;2.58;;;;;;;9.38;49.12;100301.36;1651490;86;21510;-53
2021/12/20 02:59:27;;;;;;;3.17;2.87;;;;;;;9.39;49.29;100301.78;1651690;85;21109;-51
2021/12/20 03:01:57;;;;;;;3.12;2.75;;;;;;;9.41;49.28;100300.44;1685512;83;21058;-51
2021/12/20 03:04:25;;;;;;;3.02;2.72;;;;;;;9.42;49.29;100301.69;1695606;83;21014;-51
2021/12/20 03:06:57;;;;;;;4.05;3.60;;;;;;;9.46;49.12;100306.39;1683661;83;21573;-52
2021/12/20 03:09:29;;;;;;;4.25;3.22;;;;;;;9.46;49.08;100300.72;1616303;87;21509;-52
2021/12/20 03:11:58;;;;;;;3.55;2.95;;;;;;;9.46;49.00;100302.49;1620741;87;21097;-52
2021/12/20 03:14:32;;;;;;;3.10;2.80;;;;;;;9.44;49.15;100306.84;1615163;88;21163;-51
2021/12/20 03:16:57;;;;;;;2.98;2.70;;;;;;;9.41;49.17;100304.33;1620712;87;21662;-52
2021/12/20 03:19:25;;;;;;;3.67;3.10;;;;;;;9.38;49.22;100307.84;1663764;84;21484;-52
2021/12/20 03:21:51;;;;;;;3.40;3.00;;;;;;;9.36;49.39;100307.03;1670009;84;21065;-51
2021/12/20 03:24:19;;;;;;;3.45;3.00;;;;;;;9.34;49.45;100314.00;1672680;84;21035;-51
2021/12/20 03:26:46;;;;;;;4.17;2.83;;;;;;;9.33;49.49;100313.61;1674892;85;21010;-52
2021/12/20 03:29:12;;;;;;;3.35;2.75;;;;;;;9.31;49.54;100314.09;1678143;85;21006;-51
2021/12/20 03:31:39;;;;;;;3.80;3.35;;;;;;;9.30;49.60;100314.97;1676052;85;21069;-51
2021/12/20 03:34:06;;;;;;;4.65;3.22;;;;;;;9.30;49.65;100311.08;1680578;84;21061;-53
2021/12/20 03:36:33;;;;;;;3.35;3.05;;;;;;;9.29;49.61;100313.28;1679528;84;21007;-52
2021/12/20 03:38:59;;;;;;;3.47;3.17;;;;;;;9.27;49.50;100325.44;1665580;84;21059;-51
2021/12/20 03:41:26;;;;;;;4.53;3.50;;;;;;;9.25;49.49;100317.27;1672051;84;21011;-52
2021/12/20 03:43:52;;;;;;;3.47;3.17;;;;;;;9.22;49.58;100314.30;1663478;84;21216;-51
2021/12/20 03:46:19;;;;;;;3.25;2.37;;;;;;;9.20;49.60;100318.67;1705264;80;21045;-54
2021/12/20 03:48:45;;;;;;;3.20;2.90;;;;;;;9.19;49.67;100327.33;1759508;80;21061;-51
2021/12/20 03:51:12;;;;;;;3.75;3.10;;;;;;;9.17;49.59;100339.49;1778799;80;21019;-52
2021/12/20 03:53:39;;;;;;;3.27;2.67;;;;;;;9.14;49.60;100335.69;1771043;80;21022;-51
2021/12/20 03:56:06;;;;;;;3.05;2.62;;;;;;;9.14;49.52;100342.17;1778224;80;20994;-52
2021/12/20 03:58:33;;;;;;;4.65;3.20;;;;;;;9.13;49.49;100342.22;1759976;80;21564;-51
2021/12/20 04:01:03;;;;;;;3.87;3.10;;;;;;;9.09;49.43;100337.52;1737678;81;21003;-52
2021/12/20 04:03:33;;;;;;;3.20;2.87;;;;;;;9.07;49.41;100349.67;1765573;80;21109;-52
2021/12/20 04:05:58;;;;;;;3.02;2.67;;;;;;;9.03;49.50;100351.92;1686036;83;21071;-51
2021/12/20 04:08:24;;;;;;;3.77;3.02;;;;;;;8.98;49.59;100358.50;1687679;83;21024;-51
2021/12/20 04:10:50;;;;;;;3.37;2.85;;;;;;;8.94;49.82;100347.78;1687989;83;21135;-53
2021/12/20 04:13:17;;;;;;;3.05;2.70;;;;;;;8.92;49.96;100356.52;1757044;80;21001;-52
2021/12/20 04:15:43;;;;;;;3.33;2.70;;;;;;;8.91;50.07;100362.58;1755135;81;21037;-52
2021/12/20 04:18:10;;;;;;;3.05;2.62;;;;;;;8.91;50.06;100360.84;1769143;80;21423;-52
2021/12/20 04:20:37;;;;;;;4.28;3.02;;;;;;;8.92;50.12;100366.89;1758188;80;21027;-52
2021/12/20 04:23:03;;;;;;;2.70;2.50;;;;;;;8.94;50.20;100378.09;1755367;80;20983;-52
2021/12/20 04:25:30;;;;;;;2.50;2.30;;;;;;;8.94;50.16;100380.69;1782818;80;21034;-52
2021/12/20 04:27:56;;;;;;;2.65;2.35;;;;;;;8.91;50.25;100377.70;1764927;80;21042;-52
2021/12/20 04:30:23;;;;;;;1.85;1.75;;;;;;;8.90;50.39;100379.05;1758650;80;21065;-52
2021/12/20 04:32:50;;;;;;;2.37;2.08;;;;;;;8.90;50.54;100386.83;1765284;80;21515;-52
2021/12/20 04:35:17;;;;;;;2.12;1.90;;;;;;;8.89;50.66;100389.00;1784082;80;21007;-51
2021/12/20 04:37:46;;;;;;;2.10;1.90;;;;;;;8.90;50.63;100390.72;1780044;80;21074;-51
2021/12/20 04:40:18;;;;;;;2.33;1.90;;;;;;;8.90;50.56;100390.25;1756452;80;21367;-51
2021/12/20 04:42:42;;;;;;;2.30;2.10;;;;;;;8.91;50.58;100392.41;1675027;83;21063;-52
2021/12/20 04:45:10;;;;;;;1.95;1.85;;;;;;;8.89;50.71;100393.75;1703817;83;21609;-51
2021/12/20 04:47:37;;;;;;;2.22;2.02;;;;;;;8.89;50.77;100399.37;1749494;80;21526;-51
2021/12/20 04:50:04;;;;;;;1.87;1.67;;;;;;;8.88;50.85;100400.27;1749801;80;21570;-52
2021/12/20 04:52:32;;;;;;;2.12;1.92;;;;;;;8.87;50.96;100399.84;1765019;80;20974;-53
2021/12/20 04:54:58;;;;;;;2.55;2.08;;;;;;;8.87;51.05;100414.13;1747006;80;21050;-51
2021/12/20 04:57:25;;;;;;;2.02;1.80;;;;;;;8.89;51.22;100411.05;1754751;80;21004;-52
2021/12/20 04:59:51;;;;;;;2.52;1.90;;;;;;;8.91;51.29;100411.88;1782376;80;20986;-52
2021/12/20 05:02:18;;;;;;;2.72;1.90;;;;;;;8.95;51.27;100407.03;1759583;80;21089;-52
2021/12/20 05:04:45;;;;;;;2.52;2.27;;;;;;;8.98;51.23;100406.52;1761252;80;21034;-51
2021/12/20 05:07:12;;;;;;;1.80;1.70;;;;;;;9.01;51.18;100409.06;1758537;80;21054;-51
2021/12/20 05:09:40;;;;;;;4.30;2.30;;;;;;;9.03;51.11;100415.51;1755663;80;21151;-52
2021/12/20 05:12:14;;;;;;;2.27;1.77;;;;;;;9.03;51.07;100422.00;1784354;80;21477;-51
2021/12/20 05:14:45;;;;;;;2.60;2.02;;;;;;;9.03;51.19;100416.80;1736671;81;21002;-52
2021/12/20 05:17:13;;;;;;;2.02;1.60;;;;;;;9.03;51.30;100427.19;1757954;80;21536;-52
2021/12/20 05:19:40;;;;;;;2.37;2.17;;;;;;;9.04;51.42;100423.72;1753874;81;21055;-52
2021/12/20 05:22:06;;;;;;;2.10;1.90;;;;;;;9.05;51.59;100422.82;1764091;80;20999;-51
2021/12/20 05:24:33;;;;;;;2.27;1.85;;;;;;;9.08;51.83;100411.53;1772731;80;21002;-52
2021/12/20 05:26:59;;;;;;;1.92;1.75;;;;;;;9.09;51.91;100419.27;1773745;80;21033;-52
2021/12/20 05:29:26;;;;;;;2.65;2.08;;;;;;;9.12;52.09;100419.22;1773624;80;20998;-52
2021/12/20 05:31:52;;;;;;;5.08;2.00;;;;;;;9.13;52.25;100420.91;1755120;80;20991;-51
2021/12/20 05:34:19;;;;;;;2.02;1.72;;;;;;;9.13;52.42;100418.79;1760759;80;20999;-52
2021/12/20 05:36:47;;;;;;;2.02;1.80;;;;;;;9.13;52.50;100426.58;1757431;80;21511;-52
2021/12/20 05:39:14;;;;;;;2.58;2.00;;;;;;;9.10;52.75;100423.59;1759139;80;21502;-52
2021/12/20 05:41:40;;;;;;;1.95;1.75;;;;;;;9.07;52.62;100439.21;1763278;80;21563;-52
2021/12/20 05:44:07;;;;;;;2.33;2.08;;;;;;;9.02;52.77;100433.28;1756545;80;21053;-52
2021/12/20 05:46:33;;;;;;;1.98;1.77;;;;;;;8.97;52.89;100440.29;1751574;80;21085;-52
2021/12/20 05:49:00;;;;;;;2.02;1.90;;;;;;;8.91;53.26;100440.41;1765142;80;21029;-52
2021/12/20 05:51:26;;;;;;;3.52;1.95;;;;;;;8.83;53.45;100444.91;1770029;80;20986;-52
2021/12/20 05:53:53;;;;;;;3.75;2.40;;;;;;;8.77;53.87;100448.91;1743425;80;21015;-52
2021/12/20 05:56:19;;;;;;;2.30;1.92;;;;;;;8.74;54.03;100454.14;1777702;80;21510;-52
2021/12/20 05:58:46;;;;;;;2.22;1.50;;;;;;;8.73;54.11;100458.94;1763715;80;21022;-52
2021/12/20 06:01:12;;;;;;;1.72;1.50;;;;;;;8.71;54.08;100451.63;1760131;80;21542;-52
2021/12/20 06:03:40;;;;;;;2.75;1.67;;;;;;;8.69;54.06;100462.47;1756310;81;21050;-53
2021/12/20 06:06:08;;;;;;;1.92;1.70;;;;;;;8.68;54.16;100468.53;1762035;80;21109;-53
2021/12/20 06:08:35;;;;;;;1.90;1.80;;;;;;;8.66;54.26;100467.70;1754880;80;21708;-52
2021/12/20 06:11:01;;;;;;;2.22;1.90;;;;;;;8.69;54.42;100465.06;1755566;80;20994;-52
2021/12/20 06:13:28;;;;;;;2.00;1.80;;;;;;;8.73;54.48;100469.31;1752367;80;20995;-52
2021/12/20 06:15:55;;;;;;;2.30;1.90;;;;;;;8.76;54.49;100470.10;1753313;80;21014;-52
2021/12/20 06:18:21;;;;;;;2.20;2.00;;;;;;;8.79;54.39;100473.95;1756801;80;21063;-53
2021/12/20 06:20:48;;;;;;;1.65;1.40;;;;;;;8.79;54.24;100480.87;1775716;80;21003;-52
2021/12/20 06:23:15;;;;;;;2.08;1.80;;;;;;;8.75;54.05;100475.33;1755923;80;21058;-52
2021/12/20 06:25:41;;;;;;;1.67;1.57;;;;;;;8.67;53.84;100474.62;1760657;80;21041;-51
2021/12/20 06:28:08;;;;;;;2.22;1.50;;;;;;;8.64;54.09;100475.95;1751501;80;20994;-52
2021/12/20 06:30:34;;;;;;;2.05;1.85;;;;;;;8.62;54.09;100475.99;1769000;80;20998;-52
2021/12/20 06:33:01;;;;;;;1.95;1.75;;;;;;;8.59;54.18;100476.50;1760821;80;21035;-52
2021/12/20 06:35:27;;;;;;;2.67;2.12;;;;;;;8.58;54.39;100478.66;1762733;80;21048;-52
2021/12/20 06:38:01;;;;;;;2.55;1.65;;;;;;;8.56;54.20;100483.02;1754752;80;21026;-52
2021/12/20 06:40:30;;;;;;;1.70;1.45;;;;;;;8.52;54.26;100491.73;1784125;80;21069;-52
2021/12/20 06:42:57;;;;;;;2.20;1.60;;;;;;;8.50;54.24;100503.88;1689561;83;21582;-52
2021/12/20 06:45:29;;;;;;;1.60;1.50;;;;;;;8.49;54.35;100506.07;1720367;82;21613;-52
2021/12/20 06:47:55;;;;;;;2.25;1.70;;;;;;;8.51;54.48;100509.49;1718399;82;21014;-52
2021/12/20 06:50:21;;;;;;;2.58;1.62;;;;;;;8.54;54.40;100514.61;1711329;83;21054;-51
2021/12/20 06:52:48;;;;;;;3.40;1.70;;;;;;;8.54;54.26;100519.36;1709197;83;21066;-52
2021/12/20 06:55:15;;;;;;;3.08;2.20;;;;;;;8.52;54.04;100520.27;1696272;83;21551;-53
2021/12/20 06:57:42;;;;;;;2.22;1.95;;;;;;;8.50;54.09;100533.70;1696375;83;21720;-51
2021/12/20 07:00:09;;;;;;;5.45;2.70;;;;;;;8.51;54.18;100532.83;1703984;83;20983;-52
2021/12/20 07:02:37;;;;;;;1.72;1.35;;;;;;;8.52;54.11;100537.12;1710955;83;21022;-52
2021/12/20 07:05:04;;;;;;;1.60;1.30;;;;;;;8.56;53.83;100540.08;1719692;83;20983;-53
2021/12/20 07:07:31;;;;;;;2.77;1.32;;;;;;;8.56;53.25;100538.78;1689845;83;21578;-52
2021/12/20 07:09:58;;;;;;;1.50;1.37;;;;;;;8.54;53.12;100532.77;1768621;80;21583;-52
2021/12/20 07:12:24;;;;;;;1.30;1.20;;;;;;;8.55;52.79;100531.90;1772865;80;21524;-51
2021/12/20 07:14:51;;;;;;;2.72;1.32;;;;;;;8.56;52.49;100541.38;1757693;80;21467;-51
2021/12/20 07:17:19;;;;;;;1.60;1.37;;;;;;;8.54;52.38;100545.30;1773258;80;21014;-52
2021/12/20 07:19:45;;;;;;;1.70;1.10;;;;;;;8.53;51.88;100544.03;1781551;80;20966;-52
2021/12/20 07:22:12;;;;;;;2.37;0.85;;;;;;;8.49;52.08;100543.67;1750548;80;21112;-52
2021/12/20 07:24:38;;;;;;;1.57;1.00;;;;;;;8.52;52.25;100552.68;1753504;80;21482;-53
2021/12/20 07:27:07;;;;;;;1.55;1.00;;;;;;;8.54;51.97;100557.39;1764046;80;21428;-51
2021/12/20 07:29:36;;;;;;;2.83;1.17;;;;;;;8.51;52.13;100557.47;1755894;80;21028;-51
2021/12/20 07:32:05;;;;;;;1.42;1.00;;;;;;;8.46;51.89;100549.76;1726373;80;21006;-51
2021/12/20 07:34:32;;;;;;;1.37;1.12;;;;;;;8.46;52.06;100552.78;1763755;80;21038;-52
2021/12/20 07:36:58;;;;;;;1.92;1.10;;;;;;;8.46;52.26;100545.00;1762545;80;20991;-52
2021/12/20 07:39:25;;;;;;;1.42;0.90;;;;;;;8.47;52.24;100543.67;1752317;80;21038;-51
2021/12/20 07:41:51;;;;;;;3.12;1.22;;;;;;;8.50;52.32;100542.77;1775908;80;21030;-51
2021/12/20 07:44:21;;;;;;;2.27;0.78;;;;;;;8.52;52.44;100551.38;1767243;80;21617;-52
2021/12/20 07:46:47;;;;;;;1.75;0.93;;;;;;;8.54;52.37;100550.91;1763324;80;21057;-51
2021/12/20 07:49:14;;;;;;;2.72;1.42;;;;;;;8.56;52.24;100543.97;1758276;80;21029;-52
2021/12/20 07:51:40;;;;;;;1.52;0.95;;;;;;;8.57;52.17;100552.17;1686841;83;21046;-53
2021/12/20 07:54:07;;;;;;;0.90;0.80;;;;;;;8.58;52.03;100557.76;1736222;82;21089;-52
2021/12/20 07:56:33;;;;;;;1.50;0.70;;;;;;;8.58;51.92;100557.76;1736166;82;21137;-52
2021/12/20 07:59:00;;;;;;;2.77;0.82;;;;;;;8.60;51.47;100554.70;1742690;82;21055;-52
2021/12/20 08:01:27;;;;;;;2.02;0.70;;;;;;;8.58;51.03;100556.03;1745673;81;21074;-51
2021/12/20 08:03:55;;;;;;;0.98;0.78;;;;;;;8.54;51.07;100558.27;1757198;80;21545;-52
2021/12/20 08:06:22;;;;;;;0.82;0.65;;;;;;;8.54;51.28;100562.16;1756201;80;21066;-52
2021/12/20 08:08:48;;;;;;;1.55;1.22;;;;;;;8.52;51.51;100568.23;1764745;80;21030;-51
2021/12/20 08:11:15;;;;;;;1.98;0.90;;;;;;;8.52;51.44;100568.23;1758383;80;21526;-52
2021/12/20 08:13:45;;;;;;;1.75;0.72;;;;;;;8.52;51.35;100577.31;1760368;80;21051;-52
2021/12/20 08:16:13;;;;;;;2.33;0.80;;;;;;;8.47;51.23;100577.38;1773424;80;20971;-52
2021/12/20 08:18:43;;;;;;;1.20;0.70;;;;;;;8.45;51.15;100584.80;1763156;80;20983;-52
2021/12/20 08:21:10;;;;;;;0.85;0.80;;;;;;;8.38;51.02;100589.64;1761154;80;21030;-52
2021/12/20 08:23:37;;;;;;;2.00;1.00;;;;;;;8.34;51.45;100581.50;1749403;80;20980;-51
2021/12/20 08:26:04;;;;;;;2.15;1.17;;;;;;;8.30;51.59;100580.70;1762125;80;21054;-51
2021/12/20 08:28:32;;;;;;;2.00;1.40;;;;;;;8.32;51.33;100587.14;1690323;83;21149;-51
2021/12/20 08:30:58;;;;;;;1.67;0.80;;;;;;;8.35;51.49;100585.78;1679235;83;21514;-52
2021/12/20 08:33:26;;;;;;;1.92;1.00;;;;;;;8.41;51.39;100590.91;1766446;80;21085;-51
2021/12/20 08:35:53;;;;;;;1.00;0.78;;;;;;;8.45;51.16;100578.31;1755236;81;21026;-52
2021/12/20 08:38:20;;;;;;;1.47;0.70;;;;;;;8.51;50.77;100587.28;1750346;80;21047;-52
2021/12/20 08:40:47;;;;;;;1.95;1.17;;;;;;;8.50;50.54;100589.45;1763161;80;21022;-51
2021/12/20 08:43:32;;;;;;;1.20;0.90;;;;;;;8.49;50.64;100596.83;1758826;80;21041;-52
2021/12/20 08:46:02;;;;;;;1.57;1.00;;;;;;;8.46;50.33;100592.97;1775625;80;21085;-52
2021/12/20 08:48:28;;;;;;;1.57;0.85;;;;;;;8.40;50.38;100593.06;1700100;82;21082;-54
2021/12/20 08:50:54;;;;;;;1.42;0.80;;;;;;;8.39;50.81;100596.56;1716383;83;21030;-52
2021/12/20 08:53:20;;;;;;;1.55;1.12;;;;;;;8.39;50.90;100597.85;1712415;83;21033;-52
2021/12/20 08:56:05;;;;;;;1.82;1.30;;;;;;;8.40;50.73;100593.06;1723871;82;21125;-51
2021/12/20 08:58:31;;;;;;;1.45;1.00;;;;;;;8.41;50.58;100589.15;1703865;83;21179;-51
2021/12/20 09:00:58;;;;;;;1.90;1.05;;;;;;;8.43;50.46;100574.89;1700974;83;21011;-51
2021/12/20 09:03:25;;;;;;;1.00;0.72;;;;;;;8.46;50.24;100576.12;1710559;83;21055;-51
2021/12/20 09:05:53;;;;;;;3.27;0.98;;;;;;;8.47;49.95;100564.88;1753620;80;21176;-51
2021/12/20 09:08:39;;;;;;;2.60;0.80;;;;;;;8.50;50.31;100571.30;1767904;80;21081;-51
2021/12/20 09:11:07;;;;;;;2.10;0.90;;;;;;;8.53;50.08;100569.97;1691741;83;21039;-51
2021/12/20 09:13:35;;;;;;;5.05;0.95;;;;;;;8.57;50.39;100584.59;1702858;83;21010;-51
2021/12/20 09:16:03;;;;;;;1.05;0.85;;;;;;;8.64;50.55;100591.38;1712318;82;21086;-50
2021/12/20 09:18:29;;;;;;;1.30;1.00;;;;;;;8.69;49.94;100568.82;1771400;80;21022;-51
2021/12/20 09:20:56;;;;;;;1.12;0.95;;;;;;;8.74;50.07;100569.15;1770706;80;21005;-51
2021/12/20 09:23:26;;;;;;;2.35;0.90;;;;;;;8.78;49.47;100569.52;1777096;80;21506;-51
2021/12/20 09:25:52;;;;;;;4.10;0.93;;;;;;;8.80;49.38;100570.77;1778242;80;21061;-50
2021/12/20 09:28:18;;;;;;;1.52;1.00;;;;;;;8.83;49.21;100575.48;1757682;80;21034;-51
2021/12/20 09:30:45;;;;;;;1.52;0.70;;;;;;;8.85;49.01;100574.16;1777878;80;21050;-50
2021/12/20 09:33:13;;;;;;;1.12;0.60;;;;;;;8.86;48.88;100571.99;1772374;80;21571;-51
2021/12/20 09:35:40;;;;;;;1.77;0.90;;;;;;;8.88;48.97;100574.12;1755861;80;21073;-51
2021/12/20 09:38:09;;;;;;;1.17;0.75;;;;;;;8.89;49.04;100569.33;1772060;80;22055;-51
2021/12/20 09:40:40;;;;;;;3.15;0.85;;;;;;;8.90;48.35;100565.86;1767850;80;21105;-50
2021/12/20 09:43:12;;;;;;;1.55;0.70;;;;;;;8.92;48.50;100557.61;1766869;80;21006;-51
2021/12/20 09:45:42;;;;;;;2.22;0.70;;;;;;;8.96;48.15;100550.18;1756362;80;21005;-51
2021/12/20 09:48:10;;;;;;;0.98;0.68;;;;;;;9.01;48.10;100549.64;1773463;80;21050;-52
2021/12/20 09:50:37;;;;;;;2.95;0.70;;;;;;;9.06;48.04;100546.53;1698067;84;21033;-51
2021/12/20 09:53:07;;;;;;;1.40;0.93;;;;;;;9.10;47.63;100542.98;1700891;83;21043;-51
2021/12/20 09:55:32;;;;;;;1.55;0.40;;;;;;;9.13;47.15;100554.59;1755762;80;20999;-51
2021/12/20 09:58:01;;;;;;;1.15;0.60;;;;;;;9.13;46.88;100555.89;1776488;80;21038;-51
2021/12/20 10:00:28;;;;;;;1.42;0.60;;;;;;;9.13;47.20;100556.36;1764300;80;21042;-50
2021/12/20 10:02:54;;;;;;;1.47;0.50;;;;;;;9.15;47.12;100558.02;1758413;80;21039;-51
2021/12/20 10:05:20;;;;;;;1.47;0.40;;;;;;;9.19;46.59;100563.56;1771533;80;21015;-50
2021/12/20 10:07:50;;;;;;;1.05;0.82;;;;;;;9.23;45.99;100560.05;1758883;80;21045;-51
2021/12/20 10:10:39;;;;;;;0.72;0.57;;;;;;;9.25;45.95;100553.09;1751487;80;21011;-53
2021/12/20 10:13:06;;;;;;;1.80;0.55;;;;;;;9.25;45.36;100568.66;1718036;83;21151;-53
2021/12/20 10:15:38;;;;;;;0.68;0.60;;;;;;;9.23;44.77;100562.65;1688895;83;21090;-50
2021/12/20 10:18:12;;;;;;;0.45;0.40;;;;;;;9.21;44.39;100556.59;1702524;83;21086;-51
2021/12/20 10:20:38;;;;;;;0.55;0.40;;;;;;;9.23;43.88;100570.44;1592678;88;21118;-54
2021/12/20 10:23:14;;;;;;;5.10;3.40;;;;;;;9.25;43.48;100568.66;1591360;88;21082;-54
2021/12/20 10:25:43;;;;;;;1.25;0.95;;;;;;;9.26;43.48;100565.16;1591118;88;21067;-53
2021/12/20 10:28:16;;;;;;;0.60;0.60;;;;;;;9.26;43.98;100570.36;1603438;88;21537;-52
2021/12/20 10:30:57;;;;;;;1.02;0.60;;;;;;;9.29;44.01;100561.23;1605320;89;21633;-52
2021/12/20 10:33:25;;;;;;;0.50;0.50;;;;;;;9.34;43.70;100565.01;1602448;89;21038;-52
2021/12/20 10:35:58;;;;;;;0.88;0.60;;;;;;;9.36;42.97;100569.30;1600115;89;21133;-52
2021/12/20 10:38:43;;;;;;;0.70;0.40;;;;;;;9.33;43.04;100564.17;1606734;89;21058;-52
2021/12/20 10:41:27;;;;;;;1.40;0.40;;;;;;;9.34;43.03;100563.27;1605191;89;21050;-53
2021/12/20 10:43:57;;;;;;;0.98;0.42;;;;;;;9.40;43.02;100567.05;1601056;89;21123;-54
2021/12/20 10:46:27;;;;;;;1.32;0.30;;;;;;;9.43;43.25;100572.19;1602826;89;21030;-52
2021/12/20 10:49:08;;;;;;;0.68;0.40;;;;;;;9.41;42.71;100564.88;1600874;88;21070;-52
2021/12/20 10:51:42;;;;;;;1.52;0.50;;;;;;;9.41;42.75;100560.98;1633237;87;21586;-52
2021/12/20 10:54:13;;;;;;;0.50;0.40;;;;;;;9.39;42.99;100564.05;1602879;89;21069;-52
2021/12/20 10:56:53;;;;;;;1.60;0.70;;;;;;;9.37;43.39;100558.03;1580679;89;21107;-52
2021/12/20 10:59:25;;;;;;;0.65;0.60;;;;;;;9.39;42.97;100561.45;1634891;87;21081;-53
2021/12/20 11:04:48;;;;;;;0.50;0.47;;;;;;;9.32;42.29;100562.45;1604048;88;21108;-52
2021/12/20 11:09:43;;;;;;;;;;;;;;;9.29;42.91;100552.14;1619817;88;21050;-50
2021/12/20 11:12:29;;;;;;;2.92;0.60;;;;;;;9.32;43.07;100547.30;1676845;84;20112;-52
2021/12/20 11:15:10;;;;;;;0.40;0.35;;;;;;;9.38;43.32;100549.34;1655692;85;21042;-52
2021/12/20 11:17:44;;;;;;;1.00;0.55;;;;;;;9.43;42.64;100555.31;1640780;85;21596;-52
2021/12/20 11:20:12;;;;;;;1.85;0.50;;;;;;;9.45;41.71;100558.73;1624898;86;21574;-52
2021/12/20 11:22:38;;;;;;;1.22;0.45;;;;;;;9.40;41.68;100557.09;1617315;86;21054;-52
2021/12/20 11:25:08;;;;;;;0.55;0.55;;;;;;;9.32;41.98;100553.36;1603346;87;21058;-52
2021/12/20 11:27:52;;;;;;;1.07;0.42;;;;;;;9.28;42.08;100565.99;1647208;85;21602;-52
2021/12/20 11:30:18;;;;;;;1.60;0.60;;;;;;;9.27;42.49;100566.89;1610835;87;21126;-52
2021/12/20 11:32:47;;;;;;;0.78;0.47;;;;;;;9.27;42.46;100561.70;1625859;87;21078;-52
2021/12/20 11:35:21;;;;;;;2.12;0.50;;;;;;;9.29;40.83;100562.53;1631625;87;21076;-52
2021/12/20 11:37:48;;;;;;;0.70;0.45;;;;;;;9.30;41.85;100568.12;1611820;87;21099;-53
2021/12/20 11:40:17;;;;;;;0.42;0.35;;;;;;;9.32;42.51;100566.34;1618566;87;21077;-51
2021/12/20 11:42:43;;;;;;;0.75;0.40;;;;;;;9.33;42.15;100568.51;1629266;87;21507;-53
2021/12/20 11:45:11;;;;;;;0.50;0.37;;;;;;;9.35;41.85;100575.39;1617937;87;21527;-52
2021/12/20 11:48:00;;;;;;;0.72;0.50;;;;;;;9.37;42.07;100574.91;1605711;88;21091;-52
2021/12/20 11:50:33;;;;;;;0.80;0.60;;;;;;;9.40;41.86;100586.52;1614156;87;21576;-52
2021/12/20 11:53:11;;;;;;;0.55;0.47;;;;;;;9.45;42.19;100586.44;1599948;88;21148;-52
2021/12/20 11:55:45;;;;;;;0.93;0.60;;;;;;;9.47;41.77;100580.34;1614157;89;21509;-51